createdAt,value
2019-04-01T00:04:41.976Z,99528.53
2019-04-01T00:07:10.893Z,99524.95
2019-04-01T00:09:40.847Z,99531.48
2019-04-01T00:12:10.007Z,99531.00
2019-04-01T00:14:38.684Z,99527.46
2019-04-01T00:17:07.386Z,99535.61
2019-04-01T00:19:36.397Z,99530.09
2019-04-01T00:22:05.306Z,99528.58
2019-04-01T00:24:33.991Z,99529.67
2019-04-01T00:27:02.905Z,99538.20
2019-04-01T00:29:31.585Z,99538.51
2019-04-01T00:32:00.583Z,99539.20
2019-04-01T00:34:29.294Z,99536.58
2019-04-01T00:36:57.963Z,99534.75
2019-04-01T00:39:26.633Z,99536.31
2019-04-01T00:42:04.934Z,99537.88
2019-04-01T00:44:54.580Z,99524.82
2019-04-01T00:47:23.246Z,99533.08
2019-04-01T00:49:52.011Z,99533.61
2019-04-01T00:52:22.880Z,99531.86
2019-04-01T00:54:51.643Z,99530.55
2019-04-01T00:57:20.556Z,99531.30
2019-04-01T00:59:49.806Z,99527.28
2019-04-01T01:02:18.475Z,99521.20
2019-04-01T01:04:47.181Z,99522.13
2019-04-01T01:07:15.849Z,99527.41
2019-04-01T01:09:46.057Z,99525.36
2019-04-01T01:12:14.754Z,99520.20
2019-04-01T01:14:43.540Z,99520.06
2019-04-01T01:17:12.229Z,99518.59
2019-04-01T01:19:40.932Z,99518.92
2019-04-01T01:22:09.606Z,99461.81
2019-04-01T01:24:40.061Z,99513.96
2019-04-01T01:27:08.751Z,99519.33
2019-04-01T01:29:37.423Z,99515.70
2019-04-01T01:32:06.433Z,99515.66
2019-04-01T01:34:35.385Z,99510.03
2019-04-01T01:37:04.129Z,99516.49
2019-04-01T01:39:32.817Z,99515.14
2019-04-01T01:42:02.047Z,99507.61
2019-04-01T01:44:30.733Z,99511.67
2019-04-01T01:46:59.700Z,99508.67
2019-04-01T01:49:28.377Z,99505.96
2019-04-01T01:51:57.325Z,99506.34
2019-04-01T01:54:26.261Z,99503.95
2019-04-01T01:56:55.295Z,99508.14
2019-04-01T01:59:23.970Z,99501.54
2019-04-01T02:01:52.661Z,99498.53
2019-04-01T02:04:21.330Z,99498.84
2019-04-01T02:06:50.021Z,99501.95
2019-04-01T02:09:18.949Z,99504.66
2019-04-01T02:11:47.641Z,99499.50
2019-04-01T02:14:16.551Z,99491.37
2019-04-01T02:16:45.476Z,99490.11
2019-04-01T02:19:14.413Z,99486.47
2019-04-01T02:21:43.787Z,99491.77
2019-04-01T02:24:12.726Z,99491.37
2019-04-01T02:26:41.623Z,99494.87
2019-04-01T02:29:10.291Z,99489.06
2019-04-01T02:31:39.328Z,99495.83
2019-04-01T02:34:08.264Z,99489.54
2019-04-01T02:36:37.043Z,99496.03
2019-04-01T02:39:11.399Z,99489.17
2019-04-01T02:41:40.073Z,99487.33
2019-04-01T02:44:10.384Z,99484.25
2019-04-01T02:46:39.362Z,99484.86
2019-04-01T02:49:08.121Z,99483.37
2019-04-01T02:51:36.797Z,99483.18
2019-04-01T02:54:05.779Z,99485.67
2019-04-01T02:56:35.101Z,99487.83
2019-04-01T02:59:03.802Z,99485.69
2019-04-01T03:01:32.554Z,99489.45
2019-04-01T03:04:01.280Z,99489.75
2019-04-01T03:06:30.292Z,99482.20
2019-04-01T03:08:59.197Z,99483.65
2019-04-01T03:11:28.347Z,99481.72
2019-04-01T03:13:57.032Z,99480.28
2019-04-01T03:16:25.762Z,99485.02
2019-04-01T03:18:54.921Z,99476.73
2019-04-01T03:21:23.596Z,99478.62
2019-04-01T03:23:52.283Z,99480.86
2019-04-01T03:26:21.018Z,99471.69
2019-04-01T03:28:49.955Z,99478.15
2019-04-01T03:31:18.887Z,99480.23
2019-04-01T03:33:47.571Z,99479.88
2019-04-01T03:36:16.755Z,99474.95
2019-04-01T03:38:45.668Z,99475.92
2019-04-01T03:41:14.597Z,99476.32
2019-04-01T03:43:43.517Z,99475.46
2019-04-01T03:46:12.440Z,99475.19
2019-04-01T03:48:41.441Z,99471.18
2019-04-01T03:51:10.195Z,99470.95
2019-04-01T03:53:38.918Z,99475.05
2019-04-01T03:56:07.662Z,99478.36
2019-04-01T03:58:36.334Z,99479.50
2019-04-01T04:01:05.258Z,99472.01
2019-04-01T04:03:33.975Z,99471.78
2019-04-01T04:06:02.657Z,99475.55
2019-04-01T04:08:31.336Z,99474.38
2019-04-01T04:11:00.264Z,99476.80
2019-04-01T04:13:28.938Z,99472.19
2019-04-01T04:15:57.779Z,99471.19
2019-04-01T04:18:29.077Z,99470.23
2019-04-01T04:20:58.030Z,99475.83
2019-04-01T04:23:26.662Z,99474.95
2019-04-01T04:25:55.644Z,99472.09
2019-04-01T04:28:24.565Z,99475.72
2019-04-01T04:30:53.527Z,99476.20
2019-04-01T04:33:22.214Z,99469.84
2019-04-01T04:35:50.883Z,99477.85
2019-04-01T04:38:20.819Z,99479.61
2019-04-01T04:40:52.783Z,99479.07
2019-04-01T04:43:29.412Z,99484.13
2019-04-01T04:46:03.625Z,99481.11
2019-04-01T04:48:33.347Z,99479.45
2019-04-01T04:51:02.282Z,99485.34
2019-04-01T04:53:31.207Z,99475.83
2019-04-01T04:55:59.893Z,99477.88
2019-04-01T04:58:28.833Z,99482.84
2019-04-01T05:00:57.748Z,99480.63
2019-04-01T05:03:26.426Z,99482.08
2019-04-01T05:05:55.189Z,99485.03
2019-04-01T05:08:24.164Z,99484.27
2019-04-01T05:10:52.823Z,99490.13
2019-04-01T05:13:21.833Z,99484.45
2019-04-01T05:15:50.559Z,99491.59
2019-04-01T05:18:19.739Z,99487.27
2019-04-01T05:20:48.715Z,99488.31
2019-04-01T05:23:18.349Z,99488.98
2019-04-01T05:25:48.470Z,99489.97
2019-04-01T05:28:18.110Z,99488.36
2019-04-01T05:30:48.813Z,99488.72
2019-04-01T05:33:20.975Z,99491.32
2019-04-01T05:35:49.893Z,99493.94
2019-04-01T05:38:18.656Z,99498.60
2019-04-01T05:40:47.329Z,99500.53
2019-04-01T05:43:16.074Z,99503.59
2019-04-01T05:45:47.703Z,99506.30
2019-04-01T05:48:17.498Z,99504.47
2019-04-01T05:50:46.467Z,99504.80
2019-04-01T05:53:15.244Z,99506.81
2019-04-01T05:55:43.956Z,99507.59
2019-04-01T05:58:12.677Z,99513.98
2019-04-01T06:00:48.453Z,99512.78
2019-04-01T06:03:17.378Z,99505.98
2019-04-01T06:05:46.544Z,99510.33
2019-04-01T06:08:15.339Z,99508.39
2019-04-01T06:10:44.155Z,99513.33
2019-04-01T06:13:13.483Z,99511.59
2019-04-01T06:15:42.301Z,99506.34
2019-04-01T06:18:10.990Z,99512.59
2019-04-01T06:20:39.842Z,99514.09
2019-04-01T06:23:08.857Z,99510.41
2019-04-01T06:25:37.537Z,99509.63
2019-04-01T06:28:06.353Z,99511.77
2019-04-01T06:30:35.079Z,99514.27
2019-04-01T06:33:04.092Z,99517.66
2019-04-01T06:35:33.322Z,99513.30
2019-04-01T06:38:02.038Z,99513.78
2019-04-01T06:40:30.982Z,99520.20
2019-04-01T06:42:59.667Z,99521.42
2019-04-01T06:45:28.339Z,99515.25
2019-04-01T06:47:57.124Z,99352.08
2019-04-01T06:50:25.825Z,99516.25
2019-04-01T06:52:55.445Z,99510.91
2019-04-01T06:55:24.260Z,99512.61
2019-04-01T06:57:53.107Z,99507.51
2019-04-01T07:00:23.563Z,99512.63
2019-04-01T07:02:52.836Z,99511.61
2019-04-01T07:05:21.578Z,99509.86
2019-04-01T07:07:50.322Z,99511.15
2019-04-01T07:10:19.067Z,99510.82
2019-04-01T07:12:48.065Z,99511.22
2019-04-01T07:15:16.904Z,99510.52
2019-04-01T07:17:45.679Z,99510.75
2019-04-01T07:20:14.987Z,99502.02
2019-04-01T07:22:43.794Z,99504.82
2019-04-01T07:25:12.542Z,99502.43
2019-04-01T07:27:41.328Z,99501.50
2019-04-01T07:30:11.160Z,99502.96
2019-04-01T07:32:40.152Z,99505.27
2019-04-01T07:35:09.336Z,99502.02
2019-04-01T07:37:38.072Z,99504.63
2019-04-01T07:40:08.378Z,99498.92
2019-04-01T07:42:37.455Z,99504.78
2019-04-01T07:45:06.538Z,99500.11
2019-04-01T07:47:35.383Z,99501.55
2019-04-01T07:50:04.783Z,99495.48
2019-04-01T07:52:33.455Z,99494.75
2019-04-01T07:55:02.209Z,99494.58
2019-04-01T07:57:32.786Z,99495.66
2019-04-01T08:00:01.956Z,99491.63
2019-04-01T08:02:30.636Z,99485.44
2019-04-01T08:04:59.825Z,99493.91
2019-04-01T08:07:28.828Z,99488.47
2019-04-01T08:09:57.602Z,99487.72
2019-04-01T08:12:27.936Z,99488.27
2019-04-01T08:14:57.168Z,99487.15
2019-04-01T08:17:25.937Z,99483.88
2019-04-01T08:19:55.294Z,99488.64
2019-04-01T08:22:24.556Z,99480.20
2019-04-01T08:24:54.027Z,99487.31
2019-04-01T08:27:22.711Z,99484.05
2019-04-01T08:29:51.726Z,99485.16
2019-04-01T08:32:20.591Z,99486.80
2019-04-01T08:34:51.555Z,99477.30
2019-04-01T08:37:20.362Z,99476.78
2019-04-01T08:39:49.306Z,99471.05
2019-04-01T08:42:18.048Z,99478.69
2019-04-01T08:44:46.888Z,99474.06
2019-04-01T08:47:15.710Z,99480.88
2019-04-01T08:49:44.541Z,99481.95
2019-04-01T08:52:13.316Z,99477.05
2019-04-01T08:54:42.485Z,99472.16
2019-04-01T08:57:11.231Z,99471.05
2019-04-01T08:59:40.006Z,99464.79
2019-04-01T09:02:17.636Z,99463.42
2019-04-01T09:04:39.551Z,99462.61
2019-04-01T09:07:08.253Z,99466.42
2019-04-01T09:09:38.718Z,99456.04
2019-04-01T09:12:07.568Z,99452.23
2019-04-01T09:14:37.286Z,99456.02
2019-04-01T09:17:05.992Z,99455.75
2019-04-01T09:19:34.833Z,99453.58
2019-04-01T09:22:03.515Z,99449.99
2019-04-01T09:24:32.464Z,99449.19
2019-04-01T09:27:01.641Z,99453.53
2019-04-01T09:29:30.639Z,99447.50
2019-04-01T09:31:59.330Z,99450.22
2019-04-01T09:34:29.633Z,99448.02
2019-04-01T09:36:58.674Z,99446.07
2019-04-01T09:39:27.577Z,99438.38
2019-04-01T09:41:56.363Z,99438.10
2019-04-01T09:44:36.747Z,99436.45
2019-04-01T09:47:00.007Z,99430.94
2019-04-01T09:49:31.368Z,99428.71
2019-04-01T09:52:03.652Z,99425.62
2019-04-01T09:54:30.784Z,99423.05
2019-04-01T09:56:59.806Z,99426.23
2019-04-01T09:59:28.491Z,99416.84
2019-04-01T10:01:57.438Z,99407.06
2019-04-01T10:04:28.301Z,99407.06
2019-04-01T10:06:57.219Z,99399.09
2019-04-01T10:09:25.956Z,99391.80
2019-04-01T10:11:55.291Z,99395.12
2019-04-01T10:14:23.972Z,99388.84
2019-04-01T10:16:52.651Z,99387.47
2019-04-01T10:19:21.339Z,99380.22
2019-04-01T10:21:50.031Z,99383.30
2019-04-01T10:24:18.977Z,99373.11
2019-04-01T10:26:47.727Z,99375.14
2019-04-01T10:29:17.190Z,99364.32
2019-04-01T10:31:45.871Z,99362.95
2019-04-01T10:34:14.541Z,99363.69
2019-04-01T10:36:43.594Z,99359.06
2019-04-01T10:39:12.513Z,99348.86
2019-04-01T10:41:41.423Z,99355.77
2019-04-01T10:44:10.072Z,99347.77
2019-04-01T10:46:40.769Z,99345.73
2019-04-01T10:49:09.504Z,99339.20
2019-04-01T10:51:38.303Z,99334.17
2019-04-01T10:54:07.614Z,99330.78
2019-04-01T10:56:36.327Z,99324.41
2019-04-01T10:59:05.100Z,99329.81
2019-04-01T11:01:34.114Z,99325.35
2019-04-01T11:04:03.093Z,99335.05
2019-04-01T11:06:32.312Z,99335.05
2019-04-01T11:09:01.062Z,99331.92
2019-04-01T11:11:30.146Z,99318.13
2019-04-01T11:13:58.826Z,99311.84
2019-04-01T11:16:27.515Z,99316.88
2019-04-01T11:18:58.127Z,99307.02
2019-04-01T11:21:26.739Z,99316.13
2019-04-01T11:23:55.429Z,99315.77
2019-04-01T11:26:24.447Z,99308.83
2019-04-01T11:28:53.205Z,99309.31
2019-04-01T11:31:22.191Z,99307.76
2019-04-01T11:33:50.879Z,99303.52
2019-04-01T11:36:19.516Z,99301.55
2019-04-01T11:38:48.554Z,99300.86
2019-04-01T11:41:17.771Z,99294.13
2019-04-01T11:43:46.792Z,99281.80
2019-04-01T11:46:15.477Z,99288.70
2019-04-01T11:48:44.210Z,99286.86
2019-04-01T11:51:13.178Z,99289.98
2019-04-01T11:53:41.934Z,99277.75
2019-04-01T11:56:10.956Z,99279.56
2019-04-01T11:58:40.267Z,99265.52
2019-04-01T12:01:09.211Z,99268.94
2019-04-01T12:03:37.898Z,99259.27
2019-04-01T12:06:06.579Z,99263.66
2019-04-01T12:08:35.663Z,99248.52
2019-04-01T12:11:04.475Z,99252.40
2019-04-01T12:13:33.439Z,99244.72
2019-04-01T12:16:02.416Z,99243.55
2019-04-01T12:18:31.251Z,99239.59
2019-04-01T12:21:00.153Z,99223.02
2019-04-01T12:23:29.169Z,99235.40
2019-04-01T12:25:58.113Z,99225.45
2019-04-01T12:28:26.812Z,99221.59
2019-04-01T12:30:55.815Z,99227.58
2019-04-01T12:33:26.335Z,99219.06
2019-04-01T12:35:55.643Z,99213.12
2019-04-01T12:38:24.318Z,99206.18
2019-04-01T12:40:53.308Z,99206.70
2019-04-01T12:43:23.709Z,99200.69
2019-04-01T12:45:52.787Z,99194.69
2019-04-01T12:48:21.558Z,99190.96
2019-04-01T12:50:53.043Z,99181.47
2019-04-01T12:53:21.804Z,99190.14
2019-04-01T12:55:50.532Z,99194.59
2019-04-01T12:58:20.655Z,99189.81
2019-04-01T13:00:50.788Z,99179.48
2019-04-01T13:03:20.243Z,99177.80
2019-04-01T13:05:48.928Z,99169.44
2019-04-01T13:08:17.917Z,99160.95
2019-04-01T13:10:46.657Z,99161.90
2019-04-01T13:13:15.972Z,99150.52
2019-04-01T13:15:44.908Z,99148.98
2019-04-01T13:18:13.846Z,99151.69
2019-04-01T13:20:42.785Z,99139.02
2019-04-01T13:23:11.471Z,99141.21
2019-04-01T13:25:40.634Z,99134.97
2019-04-01T13:28:09.792Z,99135.27
2019-04-01T13:30:38.476Z,99136.72
2019-04-01T13:33:07.182Z,99123.29
2019-04-01T13:35:35.807Z,99127.16
2019-04-01T13:38:04.490Z,99116.08
2019-04-01T13:40:33.158Z,99114.55
2019-04-01T13:43:04.633Z,99107.94
2019-04-01T13:45:32.248Z,99108.92
2019-04-01T13:48:01.430Z,99106.36
2019-04-01T13:50:30.150Z,99103.43
2019-04-01T13:52:58.812Z,99102.34
2019-04-01T13:55:27.986Z,99098.56
2019-04-01T13:57:56.950Z,99092.61
2019-04-01T14:00:27.539Z,99089.19
2019-04-01T14:02:56.038Z,99086.29
2019-04-01T14:05:25.300Z,99079.34
2019-04-01T14:07:53.997Z,99081.59
2019-04-01T14:10:22.673Z,99066.61
2019-04-01T14:12:51.589Z,99072.88
2019-04-01T14:15:20.353Z,99066.66
2019-04-01T14:17:49.261Z,99063.07
2019-04-01T14:20:17.950Z,99062.92
2019-04-01T14:22:46.695Z,99061.47
2019-04-01T14:25:15.430Z,99050.61
2019-04-01T14:27:44.357Z,99042.36
2019-04-01T14:30:13.292Z,99040.25
2019-04-01T14:32:42.452Z,99029.22
2019-04-01T14:35:11.288Z,99036.19
2019-04-01T14:37:40.309Z,99024.93
2019-04-01T14:40:09.415Z,99024.28
2019-04-01T14:42:39.611Z,99022.98
2019-04-01T14:45:09.155Z,99020.80
2019-04-01T14:47:55.563Z,99014.90
2019-04-01T14:50:08.525Z,99011.10
2019-04-01T14:52:37.273Z,99005.01
2019-04-01T14:55:06.676Z,98992.05
2019-04-01T14:57:35.606Z,98995.36
2019-04-01T15:00:10.695Z,98990.78
2019-04-01T15:02:39.507Z,98989.31
2019-04-01T15:05:08.359Z,98986.06
2019-04-01T15:07:37.129Z,98987.95
2019-04-01T15:10:06.252Z,98980.47
2019-04-01T15:12:34.998Z,98975.30
2019-04-01T15:15:04.153Z,98969.28
2019-04-01T15:17:36.672Z,98967.09
2019-04-01T15:20:04.561Z,98959.73
2019-04-01T15:22:33.556Z,98960.69
2019-04-01T15:25:02.559Z,98951.86
2019-04-01T15:27:31.546Z,98955.38
2019-04-01T15:30:00.250Z,98947.44
2019-04-01T15:32:28.937Z,98946.61
2019-04-01T15:34:57.717Z,98939.77
2019-04-01T15:37:32.040Z,98940.58
2019-04-01T15:39:59.463Z,98936.92
2019-04-01T15:42:28.153Z,98924.84
2019-04-01T15:44:59.042Z,98920.07
2019-04-01T15:47:27.829Z,98918.34
2019-04-01T15:49:59.036Z,98911.20
2019-04-01T15:52:28.877Z,98907.89
2019-04-01T15:54:58.107Z,98909.70
2019-04-01T15:57:27.547Z,98910.82
2019-04-01T15:59:56.231Z,98901.70
2019-04-01T16:02:27.829Z,98902.69
2019-04-01T16:04:58.807Z,98905.05
2019-04-01T16:07:28.957Z,98899.06
2019-04-01T16:09:58.473Z,98909.09
2019-04-01T16:12:27.434Z,98898.16
2019-04-01T16:14:56.175Z,98896.20
2019-04-01T16:17:24.897Z,98896.23
2019-04-01T16:19:56.016Z,98882.97
2019-04-01T16:22:24.754Z,98892.27
2019-04-01T16:24:54.451Z,98883.14
2019-04-01T16:27:23.112Z,98889.21
2019-04-01T16:29:52.073Z,98886.52
2019-04-01T16:32:20.943Z,98887.03
2019-04-01T16:34:49.879Z,98892.37
2019-04-01T16:37:18.816Z,98889.77
2019-04-01T16:39:48.812Z,98889.09
2019-04-01T16:42:17.468Z,98885.50
2019-04-01T16:44:46.595Z,98883.41
2019-04-01T16:47:15.383Z,98886.64
2019-04-01T16:49:44.075Z,98883.72
2019-04-01T16:52:15.447Z,98881.05
2019-04-01T16:54:47.229Z,98880.48
2019-04-01T16:57:16.184Z,98883.11
2019-04-01T16:59:44.895Z,98882.14
2019-04-01T17:02:18.194Z,98870.69
2019-04-01T17:04:46.118Z,98876.81
2019-04-01T17:07:14.893Z,98868.94
2019-04-01T17:09:43.842Z,98875.99
2019-04-01T17:12:13.107Z,98870.12
2019-04-01T17:14:42.274Z,98867.25
2019-04-01T17:17:11.356Z,98871.00
2019-04-01T17:19:40.268Z,98863.80
2019-04-01T17:22:11.383Z,98870.84
2019-04-01T17:24:39.647Z,98867.13
2019-04-01T17:27:12.040Z,98865.26
2019-04-01T17:29:42.420Z,98868.66
2019-04-01T17:32:11.493Z,98865.44
2019-04-01T17:34:40.505Z,98869.97
2019-04-01T17:37:09.595Z,98867.67
2019-04-01T17:39:38.324Z,98868.78
2019-04-01T17:42:07.464Z,98873.17
2019-04-01T17:44:36.232Z,98870.88
2019-04-01T17:47:06.192Z,98863.26
2019-04-01T17:49:35.222Z,98871.00
2019-04-01T17:52:04.585Z,98866.24
2019-04-01T17:54:33.534Z,98867.54
2019-04-01T17:57:02.294Z,98867.66
2019-04-01T17:59:31.323Z,98867.77
2019-04-01T18:02:00.353Z,98868.52
2019-04-01T18:04:30.941Z,98865.19
2019-04-01T18:06:59.989Z,98871.69
2019-04-01T18:09:28.813Z,98867.16
2019-04-01T18:11:57.817Z,98875.27
2019-04-01T18:14:26.578Z,98875.27
2019-04-01T18:16:55.255Z,98877.48
2019-04-01T18:19:23.918Z,98873.48
2019-04-01T18:21:52.721Z,98874.42
2019-04-01T18:24:22.261Z,98879.27
2019-04-01T18:26:54.061Z,98870.72
2019-04-01T18:29:22.755Z,98867.52
2019-04-01T18:31:51.779Z,98882.08
2019-04-01T18:34:22.983Z,98883.48
2019-04-01T18:36:52.212Z,98881.13
2019-04-01T18:39:21.230Z,98883.60
2019-04-01T18:41:49.989Z,98885.12
2019-04-01T18:44:18.967Z,98876.50
2019-04-01T18:46:47.639Z,98881.49
2019-04-01T18:49:17.296Z,98879.80
2019-04-01T18:51:46.337Z,98878.95
2019-04-01T18:54:14.984Z,98874.15
2019-04-01T18:56:43.919Z,98874.80
2019-04-01T18:59:12.619Z,98878.06
2019-04-01T19:01:41.331Z,98872.92
2019-04-01T19:04:10.079Z,98880.05
2019-04-01T19:06:38.991Z,98880.86
2019-04-01T19:09:09.814Z,98877.56
2019-04-01T19:11:39.598Z,98877.11
2019-04-01T19:14:08.466Z,98884.78
2019-04-01T19:16:37.426Z,98879.32
2019-04-01T19:19:06.125Z,98877.28
2019-04-01T19:21:35.037Z,98881.24
2019-04-01T19:24:06.610Z,98884.38
2019-04-01T19:26:34.273Z,98884.78
2019-04-01T19:29:03.064Z,98880.28
2019-04-01T19:31:32.005Z,98876.12
2019-04-01T19:34:00.689Z,98874.89
2019-04-01T19:36:30.146Z,98880.69
2019-04-01T19:38:59.432Z,98876.14
2019-04-01T19:41:28.373Z,98874.07
2019-04-01T19:43:57.062Z,98872.56
2019-04-01T19:46:26.010Z,98875.80
2019-04-01T19:48:54.960Z,98868.67
2019-04-01T19:51:23.652Z,98870.53
2019-04-01T19:53:53.239Z,98860.89
2019-04-01T19:56:22.378Z,98864.46
2019-04-01T19:58:51.119Z,98861.80
2019-04-01T20:01:20.243Z,98860.20
2019-04-01T20:03:48.959Z,98860.20
2019-04-01T20:06:18.526Z,98859.36
2019-04-01T20:08:49.690Z,98860.16
2019-04-01T20:11:18.216Z,98855.30
2019-04-01T20:13:46.921Z,98852.70
2019-04-01T20:16:15.860Z,98849.41
2019-04-01T20:18:44.561Z,98843.07
2019-04-01T20:21:13.569Z,98844.67
2019-04-01T20:23:42.335Z,98846.31
2019-04-01T20:26:11.019Z,98840.07
2019-04-01T20:28:39.999Z,98840.38
2019-04-01T20:31:08.694Z,98838.25
2019-04-01T20:33:37.422Z,98837.30
2019-04-01T20:36:06.374Z,98826.52
2019-04-01T20:38:35.096Z,98825.47
2019-04-01T20:41:03.852Z,98818.11
2019-04-01T20:43:32.575Z,98817.48
2019-04-01T20:46:01.268Z,98816.75
2019-04-01T20:48:29.954Z,98815.09
2019-04-01T20:50:58.638Z,98813.13
2019-04-01T20:53:27.568Z,98807.06
2019-04-01T20:55:56.246Z,98802.85
2019-04-01T20:58:24.940Z,98800.31
2019-04-01T21:00:53.703Z,98800.59
2019-04-01T21:03:22.407Z,98796.33
2019-04-01T21:05:51.151Z,98791.23
2019-04-01T21:08:19.820Z,98787.24
2019-04-01T21:10:48.505Z,98782.64
2019-04-01T21:13:17.201Z,98779.91
2019-04-01T21:15:48.312Z,98777.53
2019-04-01T21:18:17.222Z,98771.59
2019-04-01T21:20:45.942Z,98771.56
2019-04-01T21:23:14.973Z,98768.52
2019-04-01T21:25:43.713Z,98766.25
2019-04-01T21:28:12.484Z,98768.92
2019-04-01T21:30:41.181Z,98764.80
2019-04-01T21:33:10.012Z,98763.34
2019-04-01T21:35:38.967Z,98763.14
2019-04-01T21:38:07.908Z,98761.85
2019-04-01T21:40:36.606Z,98755.06
2019-04-01T21:43:05.843Z,98751.57
2019-04-01T21:45:34.881Z,98749.17
2019-04-01T21:48:06.417Z,98748.41
2019-04-01T21:50:35.136Z,98738.73
2019-04-01T21:53:06.754Z,98734.66
2019-04-01T21:55:35.457Z,98731.13
2019-04-01T21:58:04.485Z,98732.75
2019-04-01T22:00:53.181Z,98731.73
2019-04-01T22:03:21.849Z,98727.63
2019-04-01T22:05:50.614Z,98727.13
2019-04-01T22:08:19.303Z,98723.34
2019-04-01T22:10:48.179Z,98721.20
2019-04-01T22:13:17.098Z,98714.14
2019-04-01T22:15:46.195Z,98710.60
2019-04-01T22:18:14.939Z,98707.88
2019-04-01T22:20:44.436Z,98698.64
2019-04-01T22:23:13.102Z,98700.73
2019-04-01T22:25:42.335Z,98691.00
2019-04-01T22:28:11.025Z,98694.80
2019-04-01T22:30:39.955Z,98685.05
2019-04-01T22:33:08.722Z,98688.60
2019-04-01T22:35:38.957Z,98686.20
2019-04-01T22:38:07.915Z,98685.14
2019-04-01T22:40:36.771Z,98685.44
2019-04-01T22:43:05.554Z,98678.12
2019-04-01T22:45:34.331Z,98675.12
2019-04-01T22:48:02.998Z,98668.66
2019-04-01T22:50:31.690Z,98667.87
2019-04-01T22:53:00.363Z,98667.59
2019-04-01T22:55:29.066Z,98661.35
2019-04-01T22:57:57.783Z,98660.56
2019-04-01T23:00:26.623Z,98660.59
2019-04-01T23:02:55.531Z,98655.40
2019-04-01T23:05:24.232Z,98650.83
2019-04-01T23:07:53.140Z,98648.42
2019-04-01T23:10:21.814Z,98642.97
2019-04-01T23:12:51.135Z,98648.98
2019-04-01T23:15:20.190Z,98638.70
2019-04-01T23:17:49.108Z,98641.97
2019-04-01T23:20:18.024Z,98637.91
2019-04-01T23:22:46.953Z,98633.85
2019-04-01T23:25:15.884Z,98636.27
2019-04-01T23:27:44.665Z,98633.33
2019-04-01T23:30:13.684Z,98628.45
2019-04-01T23:32:42.645Z,98626.28
2019-04-01T23:35:14.400Z,98629.00
2019-04-01T23:38:00.279Z,98617.58
2019-04-01T23:40:29.243Z,98615.13
2019-04-01T23:42:58.175Z,98612.13
2019-04-01T23:45:27.100Z,98607.52
2019-04-01T23:47:55.774Z,98602.62
2019-04-01T23:50:25.190Z,98604.55
2019-04-01T23:52:53.858Z,98595.35
2019-04-01T23:55:22.542Z,98594.52
2019-04-01T23:57:51.239Z,98587.48
